Time;durP1;ratioP1;P1;durP2;ratioP2;P2;SDS_P1;SDS_P2;PMS_P1;PMS_P2;Temp;Humidity;BMP_temperature;BMP_pressure;BME280_temperature;BME280_humidity;BME280_pressure;Samples;Min_cycle;Max_cycle;Signal;HPM_P1;HPM_P2
2021/03/04 00:00:45;;;;;;;9.45;6.97;;;2.40;81.10;;;;;;4780792;30;20051;-75
2021/03/04 00:03:13;;;;;;;12.27;6.78;;;2.50;80.50;;;;;;4767000;30;20091;-76
2021/03/04 00:05:40;;;;;;;12.10;6.13;;;2.60;79.70;;;;;;4765709;30;20098;-76
2021/03/04 00:08:07;;;;;;;10.60;6.65;;;2.70;79.20;;;;;;4765062;30;20832;-76
2021/03/04 00:10:34;;;;;;;12.13;6.15;;;2.60;79.70;;;;;;4767269;30;20134;-76
2021/03/04 00:13:01;;;;;;;8.57;7.20;;;2.60;79.30;;;;;;4767042;30;20055;-76
2021/03/04 00:15:31;;;;;;;7.25;5.72;;;2.60;79.40;;;;;;4769385;30;20066;-76
2021/03/04 00:17:58;;;;;;;8.57;5.68;;;2.60;80.50;;;;;;4768761;30;20054;-76
2021/03/04 00:20:32;;;;;;;8.30;5.78;;;2.40;80.70;;;;;;4762556;30;20049;-76
2021/03/04 00:23:03;;;;;;;7.68;6.25;;;2.30;83.00;;;;;;4769688;30;20051;-75
2021/03/04 00:25:37;;;;;;;8.30;6.13;;;2.10;83.00;;;;;;4768799;30;20058;-75
2021/03/04 00:28:04;;;;;;;12.57;7.40;;;2.10;82.40;;;;;;4768295;30;20052;-76
2021/03/04 00:30:31;;;;;;;8.80;5.50;;;2.40;80.70;;;;;;4769450;30;20071;-75
2021/03/04 00:33:00;;;;;;;8.65;6.57;;;2.60;79.80;;;;;;4768978;30;20117;-76
2021/03/04 00:35:27;;;;;;;7.28;5.38;;;2.70;80.60;;;;;;4758336;30;20525;-76
2021/03/04 00:37:54;;;;;;;11.95;7.28;;;2.50;81.80;;;;;;4770059;30;20403;-89
2021/03/04 00:40:23;;;;;;;10.50;7.55;;;2.30;82.40;;;;;;4755103;30;20131;-88
2021/03/04 00:42:50;;;;;;;8.43;6.97;;;2.20;83.20;;;;;;4745713;30;20384;-79
2021/03/04 00:45:20;;;;;;;11.85;6.82;;;2.30;82.30;;;;;;4763133;30;20052;-78
2021/03/04 00:48:09;;;;;;;9.13;6.32;;;2.30;82.30;;;;;;4768505;30;20529;-78
2021/03/04 00:50:39;;;;;;;10.40;7.55;;;2.30;82.80;;;;;;4769631;30;20387;-82
2021/03/04 00:53:06;;;;;;;7.20;6.50;;;2.30;83.20;;;;;;4767999;30;20138;-82
2021/03/04 00:55:33;;;;;;;9.38;6.25;;;2.20;83.10;;;;;;4753993;30;20056;-83
2021/03/04 00:58:03;;;;;;;6.70;5.82;;;2.20;84.70;;;;;;4753218;30;20130;-82
2021/03/04 01:00:37;;;;;;;10.98;5.57;;;2.30;84.10;;;;;;4752924;30;20076;-82
2021/03/04 01:03:04;;;;;;;5.85;5.18;;;2.30;84.40;;;;;;4749748;30;20091;-79
2021/03/04 01:05:32;;;;;;;8.30;5.38;;;2.40;84.90;;;;;;4752552;30;20074;-80
2021/03/04 01:08:02;;;;;;;7.03;5.53;;;2.60;84.70;;;;;;4769126;30;20059;-79
2021/03/04 01:10:38;;;;;;;6.90;5.47;;;2.60;83.90;;;;;;4750042;30;20058;-80
2021/03/04 01:13:06;;;;;;;8.32;6.60;;;2.60;83.10;;;;;;4755080;30;20043;-80
2021/03/04 01:15:34;;;;;;;7.18;5.57;;;2.70;83.60;;;;;;4766230;30;20641;-79
2021/03/04 01:18:03;;;;;;;6.93;6.13;;;2.80;82.20;;;;;;4749696;30;20048;-79
2021/03/04 01:20:31;;;;;;;7.47;5.45;;;2.90;81.60;;;;;;4768403;30;20120;-79
2021/03/04 01:22:58;;;;;;;15.82;9.05;;;2.90;81.20;;;;;;4769525;30;20615;-79
2021/03/04 01:25:25;;;;;;;9.02;5.90;;;2.80;81.90;;;;;;4767838;30;20144;-79
2021/03/04 01:27:54;;;;;;;7.40;6.50;;;2.80;82.40;;;;;;4768927;30;20083;-79
2021/03/04 01:30:30;;;;;;;7.35;6.07;;;2.60;82.40;;;;;;4769367;30;20773;-79
2021/03/04 01:33:13;;;;;;;7.05;5.28;;;2.60;83.90;;;;;;4768769;30;20130;-79
2021/03/04 01:35:40;;;;;;;7.18;6.47;;;2.50;85.40;;;;;;4768623;30;20056;-83
2021/03/04 01:38:08;;;;;;;8.00;5.38;;;2.50;84.00;;;;;;4753026;30;20051;-83
2021/03/04 01:40:35;;;;;;;11.07;6.05;;;2.60;83.00;;;;;;4767986;29;20445;-83
2021/03/04 01:43:02;;;;;;;9.40;5.63;;;2.70;82.70;;;;;;4770738;30;20116;-83
2021/03/04 01:45:31;;;;;;;9.38;5.95;;;2.70;82.60;;;;;;4753169;30;20062;-83
2021/03/04 01:48:00;;;;;;;8.20;7.30;;;2.70;82.60;;;;;;4752639;30;20056;-83
2021/03/04 01:50:31;;;;;;;9.00;4.88;;;2.70;82.80;;;;;;4763397;30;20135;-83
2021/03/04 01:52:59;;;;;;;9.15;7.00;;;2.80;82.90;;;;;;4769788;29;20067;-83
2021/03/04 01:55:26;;;;;;;11.30;5.72;;;2.70;82.50;;;;;;4770434;30;20051;-83
2021/03/04 01:57:56;;;;;;;11.35;5.43;;;2.70;82.10;;;;;;4770245;30;20509;-83
2021/03/04 02:00:23;;;;;;;5.30;4.50;;;2.80;83.50;;;;;;4769229;30;20514;-76
2021/03/04 02:02:53;;;;;;;6.80;5.38;;;2.80;84.30;;;;;;4767656;30;20533;-76
2021/03/04 02:05:21;;;;;;;7.28;5.70;;;2.80;83.70;;;;;;4766059;30;20875;-75
2021/03/04 02:08:07;;;;;;;7.32;5.90;;;2.80;83.40;;;;;;4766959;30;20063;-76
2021/03/04 02:10:44;;;;;;;9.45;6.68;;;2.70;84.00;;;;;;4755668;30;20076;-75
2021/03/04 02:13:25;;;;;;;;;;;2.60;83.60;;;;;;4767530;30;20040;-76
2021/03/04 02:15:59;;;;;;;6.88;5.15;;;2.40;85.40;;;;;;4767192;30;19930;-76
2021/03/04 02:18:36;;;;;;;8.93;4.65;;;2.40;87.10;;;;;;4767143;30;20064;-76
2021/03/04 02:21:43;;;;;;;8.88;7.03;;;2.30;87.80;;;;;;4764819;30;20059;-76
2021/03/04 02:24:10;;;;;;;10.43;6.78;;;2.20;86.50;;;;;;4766881;30;20056;-76
2021/03/04 02:26:43;;;;;;;12.40;7.47;;;2.20;85.90;;;;;;4766930;30;20070;-75
2021/03/04 02:29:12;;;;;;;7.93;6.00;;;2.30;85.60;;;;;;4766611;30;20575;-75
2021/03/04 02:31:43;;;;;;;9.93;6.65;;;2.40;84.90;;;;;;4768290;30;20060;-75
2021/03/04 02:34:11;;;;;;;8.13;6.57;;;2.50;84.00;;;;;;4765954;30;21521;-76
2021/03/04 02:36:40;;;;;;;11.23;6.75;;;2.50;83.60;;;;;;4765887;30;20101;-76
2021/03/04 02:39:09;;;;;;;10.27;6.68;;;2.60;83.50;;;;;;4766880;30;20059;-76
2021/03/04 02:41:38;;;;;;;14.10;7.68;;;2.60;83.30;;;;;;4765123;30;20150;-75
2021/03/04 02:44:10;;;;;;;12.98;7.47;;;2.50;83.50;;;;;;4766523;30;20094;-76
2021/03/04 02:46:38;;;;;;;8.60;7.05;;;2.50;84.30;;;;;;4766825;30;20060;-76
2021/03/04 02:49:07;;;;;;;7.03;6.30;;;2.50;83.40;;;;;;4766818;30;20044;-76
2021/03/04 02:51:36;;;;;;;10.77;6.45;;;2.50;84.00;;;;;;4766613;30;20568;-75
2021/03/04 02:54:05;;;;;;;7.95;6.03;;;2.40;85.20;;;;;;4766523;30;20083;-75
2021/03/04 02:56:36;;;;;;;9.73;7.05;;;2.40;84.30;;;;;;4764440;30;20059;-75
2021/03/04 02:59:06;;;;;;;10.05;7.03;;;2.40;84.40;;;;;;4761008;30;20413;-76
2021/03/04 03:01:34;;;;;;;9.63;8.25;;;2.40;83.80;;;;;;4766169;30;20142;-75
2021/03/04 03:04:04;;;;;;;9.35;6.93;;;2.40;84.20;;;;;;4747250;30;20052;-76
2021/03/04 03:06:33;;;;;;;9.80;6.97;;;2.50;85.80;;;;;;4765088;30;20059;-76
2021/03/04 03:09:02;;;;;;;9.38;8.25;;;2.40;86.00;;;;;;4766410;30;20048;-76
2021/03/04 03:11:32;;;;;;;8.93;6.88;;;2.40;85.80;;;;;;4767041;30;20508;-76
2021/03/04 03:14:02;;;;;;;13.18;7.22;;;2.50;85.60;;;;;;4766789;30;20058;-75
2021/03/04 03:17:33;;;;;;;14.35;8.20;;;2.50;84.40;;;;;;4765976;30;20060;-76
2021/03/04 03:20:04;;;;;;;6.18;5.32;;;2.60;83.70;;;;;;4759857;30;20067;-75
2021/03/04 03:22:32;;;;;;;8.40;6.40;;;2.60;82.60;;;;;;4766120;30;20134;-75
2021/03/04 03:24:59;;;;;;;6.43;5.38;;;2.70;81.90;;;;;;4765843;30;20059;-75
2021/03/04 03:27:27;;;;;;;8.38;7.15;;;2.80;81.20;;;;;;4766715;30;20762;-75
2021/03/04 03:29:54;;;;;;;6.90;5.10;;;2.80;82.70;;;;;;4766683;30;20062;-75
2021/03/04 03:32:24;;;;;;;9.38;5.40;;;2.70;81.80;;;;;;4766718;30;20054;-75
2021/03/04 03:34:52;;;;;;;12.98;7.55;;;2.60;85.50;;;;;;4767004;30;20059;-75
2021/03/04 03:37:20;;;;;;;10.70;6.78;;;2.50;85.70;;;;;;4782318;30;20142;-75
2021/03/04 03:39:50;;;;;;;8.43;6.97;;;2.50;85.40;;;;;;4775040;30;20059;-75
2021/03/04 03:42:18;;;;;;;10.00;5.88;;;2.50;84.90;;;;;;4785507;30;20128;-75
2021/03/04 03:44:47;;;;;;;8.32;5.40;;;2.60;82.90;;;;;;4784685;30;20062;-75
2021/03/04 03:47:20;;;;;;;7.60;5.75;;;2.60;82.70;;;;;;4786738;29;20081;-75
2021/03/04 03:49:48;;;;;;;9.48;5.43;;;2.70;82.00;;;;;;4772238;30;20089;-75
2021/03/04 03:52:16;;;;;;;6.68;5.97;;;2.70;81.60;;;;;;4770825;30;20486;-75
2021/03/04 03:54:43;;;;;;;6.05;5.38;;;2.60;85.70;;;;;;4776368;30;20059;-75
2021/03/04 03:57:12;;;;;;;11.48;4.82;;;2.50;87.60;;;;;;4788177;29;20047;-75
2021/03/04 03:59:42;;;;;;;4.97;4.40;;;2.40;86.40;;;;;;4778908;30;20062;-75
2021/03/04 04:02:09;;;;;;;9.00;6.70;;;2.40;83.00;;;;;;4769684;30;20055;-76
2021/03/04 04:04:36;;;;;;;7.38;5.57;;;2.70;80.10;;;;;;4769528;30;20059;-75
2021/03/04 04:07:08;;;;;;;7.40;6.50;;;3.00;77.90;;;;;;4770263;30;20047;-75
2021/03/04 04:09:35;;;;;;;8.20;6.13;;;3.30;76.00;;;;;;4770010;30;20040;-75
2021/03/04 04:12:03;;;;;;;8.82;6.13;;;3.50;75.40;;;;;;4770051;30;20056;-76
2021/03/04 04:14:30;;;;;;;7.97;4.97;;;3.50;74.20;;;;;;4770155;30;20056;-76
2021/03/04 04:16:57;;;;;;;9.13;5.85;;;3.70;71.80;;;;;;4769682;30;20062;-75
2021/03/04 04:19:25;;;;;;;10.68;5.45;;;4.20;67.60;;;;;;4769917;30;20056;-76
2021/03/04 04:21:52;;;;;;;8.43;5.05;;;4.60;65.20;;;;;;4769151;30;20048;-76
2021/03/04 04:24:19;;;;;;;8.48;5.95;;;4.90;62.60;;;;;;4769667;30;20044;-75
2021/03/04 04:26:48;;;;;;;11.50;5.30;;;5.00;63.00;;;;;;4770460;30;20054;-76
2021/03/04 04:29:15;;;;;;;14.43;4.53;;;5.20;60.80;;;;;;4780168;30;20055;-76
2021/03/04 04:31:42;;;;;;;11.07;5.68;;;5.20;63.00;;;;;;4787532;30;20498;-75
2021/03/04 04:34:12;;;;;;;8.90;5.35;;;5.20;61.00;;;;;;4787051;30;20541;-76
2021/03/04 04:36:39;;;;;;;7.18;5.15;;;5.20;62.20;;;;;;4770506;30;20063;-76
2021/03/04 04:39:08;;;;;;;6.60;4.03;;;5.30;62.50;;;;;;4770141;30;20422;-76
2021/03/04 04:41:35;;;;;;;6.10;4.72;;;5.20;61.10;;;;;;4787917;30;20055;-76
2021/03/04 04:44:04;;;;;;;6.68;4.43;;;5.30;61.30;;;;;;4787503;30;20143;-75
2021/03/04 04:46:30;;;;;;;8.85;7.38;;;5.40;59.50;;;;;;4771709;30;20048;-76
2021/03/04 04:48:59;;;;;;;5.22;3.95;;;5.60;58.40;;;;;;4787070;30;20059;-76
2021/03/04 04:51:26;;;;;;;6.43;3.90;;;5.70;58.80;;;;;;4777005;30;20426;-75
2021/03/04 04:53:53;;;;;;;5.32;4.13;;;5.70;58.60;;;;;;4769496;30;20071;-76
2021/03/04 04:56:20;;;;;;;9.57;4.57;;;5.60;59.40;;;;;;4769353;30;20059;-76
2021/03/04 04:58:53;;;;;;;8.32;4.22;;;5.60;58.40;;;;;;4768365;30;20059;-76
2021/03/04 05:01:20;;;;;;;8.18;4.28;;;5.50;60.30;;;;;;4768762;30;20101;-76
2021/03/04 05:03:47;;;;;;;9.10;5.15;;;5.50;61.00;;;;;;4768142;30;20083;-76
2021/03/04 05:06:14;;;;;;;8.63;4.75;;;5.30;61.80;;;;;;4769160;30;20066;-76
2021/03/04 05:08:41;;;;;;;7.30;4.95;;;5.30;61.60;;;;;;4769013;30;20138;-76
2021/03/04 05:11:08;;;;;;;7.97;5.10;;;5.30;61.80;;;;;;4769470;30;20064;-76
2021/03/04 05:13:35;;;;;;;7.32;5.53;;;5.20;62.70;;;;;;4768705;30;20069;-76
2021/03/04 05:16:04;;;;;;;6.38;4.57;;;5.10;63.90;;;;;;4768461;30;20074;-76
2021/03/04 05:18:31;;;;;;;8.05;5.00;;;5.00;67.20;;;;;;4755575;30;20056;-77
2021/03/04 05:20:58;;;;;;;7.28;5.20;;;4.80;69.00;;;;;;4768373;30;20079;-76
2021/03/04 05:23:25;;;;;;;15.70;6.32;;;4.70;69.80;;;;;;4769565;30;20139;-76
2021/03/04 05:25:52;;;;;;;8.80;6.22;;;4.50;69.00;;;;;;4768675;30;20047;-76
2021/03/04 05:28:19;;;;;;;9.52;6.60;;;4.40;71.70;;;;;;4752687;30;20535;-76
2021/03/04 05:30:46;;;;;;;8.80;5.53;;;4.30;74.60;;;;;;4769207;30;20143;-76
2021/03/04 05:33:12;;;;;;;8.27;4.85;;;4.20;74.20;;;;;;4783642;30;20150;-76
2021/03/04 05:35:40;;;;;;;7.68;5.07;;;4.00;76.60;;;;;;4786954;30;20528;-76
2021/03/04 05:38:07;;;;;;;9.13;5.57;;;3.90;74.00;;;;;;4784421;30;20055;-76
2021/03/04 05:40:34;;;;;;;8.52;6.95;;;4.00;76.80;;;;;;4778698;30;20043;-76
2021/03/04 05:43:01;;;;;;;7.00;5.53;;;4.00;75.10;;;;;;4787140;30;20055;-76
2021/03/04 05:45:30;;;;;;;7.53;4.93;;;3.90;79.30;;;;;;4786158;30;20083;-76
2021/03/04 05:48:01;;;;;;;11.85;6.32;;;3.80;79.80;;;;;;4785829;30;20146;-76
2021/03/04 05:50:29;;;;;;;9.27;8.13;;;3.70;82.10;;;;;;4783733;30;20067;-78
2021/03/04 05:53:03;;;;;;;13.88;6.60;;;3.50;83.00;;;;;;4768368;30;20048;-76
2021/03/04 05:55:31;;;;;;;12.23;7.70;;;3.40;83.80;;;;;;4769161;30;20145;-76
2021/03/04 05:58:03;;;;;;;8.65;6.10;;;3.20;84.60;;;;;;4760559;30;20125;-76
2021/03/04 06:00:32;;;;;;;8.85;6.30;;;3.10;84.10;;;;;;4750010;30;20052;-75
2021/03/04 06:02:59;;;;;;;6.85;6.13;;;3.10;84.40;;;;;;4749037;30;20471;-76
2021/03/04 06:05:26;;;;;;;9.13;6.93;;;3.10;85.70;;;;;;4747385;30;20181;-76
2021/03/04 06:07:53;;;;;;;8.05;6.50;;;3.00;86.20;;;;;;4732265;30;20052;-76
2021/03/04 06:10:22;;;;;;;8.00;5.82;;;3.00;86.10;;;;;;4750435;30;20059;-76
2021/03/04 06:12:49;;;;;;;11.35;7.88;;;3.00;87.10;;;;;;4768155;30;20052;-76
2021/03/04 06:15:22;;;;;;;6.57;5.75;;;3.00;86.20;;;;;;4769157;30;20498;-75
2021/03/04 06:17:56;;;;;;;15.98;7.43;;;3.00;86.10;;;;;;4768266;30;20052;-75
2021/03/04 06:20:24;;;;;;;10.32;6.35;;;2.90;86.00;;;;;;4768223;30;20132;-76
2021/03/04 06:22:51;;;;;;;6.47;5.82;;;2.90;85.90;;;;;;4768549;30;20498;-76
2021/03/04 06:25:21;;;;;;;7.78;6.97;;;3.00;85.90;;;;;;4768385;30;20062;-75
2021/03/04 06:27:48;;;;;;;16.08;9.27;;;3.00;86.20;;;;;;4749409;30;20721;-76
2021/03/04 06:30:16;;;;;;;10.70;5.75;;;3.00;86.60;;;;;;4750760;30;20067;-75
2021/03/04 06:33:05;;;;;;;9.23;7.82;;;3.00;86.40;;;;;;4750205;30;20136;-76
2021/03/04 06:35:37;;;;;;;9.57;7.15;;;3.00;85.00;;;;;;4750868;30;20056;-75
2021/03/04 06:38:21;;;;;;;9.07;6.18;;;3.10;86.00;;;;;;4721380;30;20044;-75
2021/03/04 06:40:50;;;;;;;10.05;6.28;;;3.10;84.20;;;;;;4780107;30;20414;-76
2021/03/04 06:43:25;;;;;;;8.48;5.95;;;3.20;83.80;;;;;;4786649;30;20070;-75
2021/03/04 06:46:05;;;;;;;11.85;6.00;;;3.20;83.00;;;;;;4785900;30;20058;-75
2021/03/04 06:48:35;;;;;;;9.05;6.20;;;3.30;81.00;;;;;;4785969;30;20055;-74
2021/03/04 06:51:06;;;;;;;9.50;5.85;;;3.40;80.00;;;;;;4777955;30;20048;-74
2021/03/04 06:53:33;;;;;;;8.90;5.55;;;3.40;79.00;;;;;;4766768;30;20772;-74
2021/03/04 06:56:05;;;;;;;7.30;5.75;;;3.50;80.00;;;;;;4767892;30;20138;-76
2021/03/04 06:59:01;;;;;;;9.02;5.72;;;3.50;79.90;;;;;;4768266;30;20477;-75
2021/03/04 07:01:29;;;;;;;7.95;5.95;;;3.50;79.60;;;;;;4785454;30;20159;-75
2021/03/04 07:03:56;;;;;;;7.80;6.35;;;3.60;77.30;;;;;;4768200;30;20098;-75
2021/03/04 07:06:38;;;;;;;8.40;5.93;;;3.80;76.50;;;;;;4768466;30;20621;-76
2021/03/04 07:09:06;;;;;;;7.32;5.85;;;3.90;83.80;;;;;;4772703;30;20043;-77
2021/03/04 07:11:36;;;;;;;8.05;6.15;;;3.80;79.80;;;;;;4775454;30;20051;-75
2021/03/04 07:14:06;;;;;;;6.38;5.78;;;3.90;85.50;;;;;;4775625;30;20059;-76
2021/03/04 07:16:43;;;;;;;10.43;7.18;;;3.80;88.30;;;;;;4773409;30;20047;-76
2021/03/04 07:19:13;;;;;;;11.20;8.30;;;3.70;87.20;;;;;;4762370;30;20544;-76
2021/03/04 07:21:43;;;;;;;7.97;6.28;;;3.80;87.40;;;;;;4769018;30;20039;-77
2021/03/04 07:24:10;;;;;;;7.78;6.00;;;3.80;86.70;;;;;;4771252;30;20106;-77
2021/03/04 07:26:38;;;;;;;10.95;6.07;;;3.90;83.50;;;;;;4779920;30;20510;-77
2021/03/04 07:29:07;;;;;;;6.35;5.75;;;4.00;85.70;;;;;;4757395;30;20056;-77
2021/03/04 07:31:37;;;;;;;8.68;7.45;;;4.00;88.00;;;;;;4756434;30;20134;-77
2021/03/04 07:34:09;;;;;;;6.97;6.32;;;4.10;87.80;;;;;;4769238;30;20062;-77
2021/03/04 07:36:37;;;;;;;7.78;6.47;;;4.10;90.40;;;;;;4768717;30;20055;-77
2021/03/04 07:39:05;;;;;;;14.05;7.40;;;4.20;89.20;;;;;;4772574;30;20069;-77
2021/03/04 07:41:43;;;;;;;6.68;5.75;;;4.40;88.00;;;;;;4787097;30;20062;-77
2021/03/04 07:44:23;;;;;;;7.63;6.85;;;4.40;86.60;;;;;;4765554;30;20043;-77
2021/03/04 07:46:54;;;;;;;10.35;5.47;;;4.50;90.00;;;;;;4779455;30;20552;-77
2021/03/04 07:49:30;;;;;;;10.18;5.97;;;4.40;86.60;;;;;;4769277;30;20079;-77
2021/03/04 07:52:26;;;;;;;7.03;6.22;;;4.50;85.60;;;;;;4774932;30;20067;-77
2021/03/04 07:54:55;;;;;;;10.52;6.88;;;4.60;84.20;;;;;;4742601;30;20063;-77
2021/03/04 07:57:25;;;;;;;9.68;7.22;;;4.60;84.40;;;;;;4763129;30;20060;-76
2021/03/04 07:59:59;;;;;;;13.45;4.97;;;4.70;84.10;;;;;;4772482;30;20055;-76
2021/03/04 08:02:37;;;;;;;9.00;7.13;;;4.80;84.20;;;;;;4777884;30;20067;-76
2021/03/04 08:05:30;;;;;;;8.85;6.20;;;4.90;84.70;;;;;;4752764;30;20118;-76
2021/03/04 08:08:11;;;;;;;8.30;5.38;;;5.00;85.40;;;;;;4753359;30;20060;-77
2021/03/04 08:10:53;;;;;;;12.18;5.15;;;5.20;83.70;;;;;;4770868;30;20113;-76
2021/03/04 08:13:31;;;;;;;6.70;5.82;;;5.40;79.50;;;;;;4770326;30;20084;-76
2021/03/04 08:15:59;;;;;;;7.43;6.72;;;5.50;80.70;;;;;;4775476;30;20062;-77
2021/03/04 08:18:28;;;;;;;9.23;7.40;;;5.50;84.00;;;;;;4780604;30;20104;-77
2021/03/04 08:21:05;;;;;;;10.15;7.15;;;5.50;85.30;;;;;;4777502;30;20147;-77
2021/03/04 08:23:49;;;;;;;7.47;6.25;;;5.50;86.40;;;;;;4752211;30;20063;-77
2021/03/04 08:26:36;;;;;;;12.02;8.35;;;5.50;88.30;;;;;;4753016;30;20060;-76
2021/03/04 08:29:10;;;;;;;11.05;7.93;;;5.50;88.50;;;;;;4764518;30;20143;-78
2021/03/04 08:31:48;;;;;;;10.38;8.30;;;5.30;89.10;;;;;;4769991;30;20064;-76
2021/03/04 08:34:17;;;;;;;8.63;7.72;;;5.30;87.20;;;;;;4768648;29;20384;-76
2021/03/04 08:36:46;;;;;;;13.35;8.35;;;5.30;87.70;;;;;;4768618;30;20534;-77
2021/03/04 08:39:16;;;;;;;8.40;7.28;;;5.40;88.50;;;;;;4770155;30;20098;-75
2021/03/04 08:41:43;;;;;;;11.45;8.82;;;5.50;86.10;;;;;;4769401;30;20044;-78
2021/03/04 08:44:13;;;;;;;9.40;7.88;;;5.60;87.40;;;;;;4770576;30;20056;-78
2021/03/04 08:46:47;;;;;;;9.98;7.18;;;5.70;86.30;;;;;;4755751;30;20788;-78
2021/03/04 08:49:19;;;;;;;22.35;8.02;;;5.90;86.80;;;;;;4772876;30;20134;-78
2021/03/04 08:51:47;;;;;;;10.52;7.93;;;6.10;85.50;;;;;;4787748;30;20066;-78
2021/03/04 08:54:21;;;;;;;13.77;7.57;;;6.20;84.90;;;;;;4768832;30;20449;-78
2021/03/04 08:57:03;;;;;;;10.57;8.25;;;6.10;83.70;;;;;;4768370;30;20047;-78
2021/03/04 08:59:31;;;;;;;13.43;7.60;;;6.10;82.50;;;;;;4755435;30;20048;-78
2021/03/04 09:01:59;;;;;;;6.82;5.68;;;6.30;80.00;;;;;;4770283;30;20087;-77
2021/03/04 09:04:28;;;;;;;8.07;5.60;;;6.50;77.80;;;;;;4770044;30;20047;-78
2021/03/04 09:06:56;;;;;;;9.02;5.10;;;6.70;77.90;;;;;;4770289;30;20056;-78
2021/03/04 09:09:28;;;;;;;6.38;4.50;;;6.90;69.60;;;;;;4768292;30;20048;-78
2021/03/04 09:11:57;;;;;;;5.43;4.68;;;7.10;67.00;;;;;;4771315;30;20134;-78
2021/03/04 09:14:29;;;;;;;12.77;6.32;;;7.10;69.10;;;;;;4772819;30;20065;-78
2021/03/04 09:17:00;;;;;;;7.97;5.22;;;7.20;69.50;;;;;;4773968;30;20052;-78
2021/03/04 09:19:35;;;;;;;6.35;5.35;;;7.30;72.30;;;;;;4770913;30;20574;-77
2021/03/04 09:22:05;;;;;;;4.57;4.07;;;7.30;67.30;;;;;;4750945;30;20052;-78
2021/03/04 09:24:33;;;;;;;8.07;4.45;;;7.40;64.50;;;;;;4752538;30;20044;-78
2021/03/04 09:27:05;;;;;;;7.32;5.32;;;7.50;64.90;;;;;;4752062;30;20052;-78
2021/03/04 09:29:33;;;;;;;12.43;5.45;;;7.50;69.60;;;;;;4756577;30;20058;-78
2021/03/04 09:32:01;;;;;;;7.72;5.78;;;7.70;68.10;;;;;;4764453;30;20372;-78
2021/03/04 09:34:38;;;;;;;9.13;5.07;;;7.80;66.80;;;;;;4754391;30;20093;-78
2021/03/04 09:37:12;;;;;;;7.30;4.13;;;7.90;63.00;;;;;;4770157;30;20043;-78
2021/03/04 09:39:44;;;;;;;9.57;4.80;;;8.10;65.20;;;;;;4769477;30;20055;-78
2021/03/04 09:42:31;;;;;;;6.55;4.47;;;8.30;63.30;;;;;;4767752;30;20491;-78
2021/03/04 09:45:07;;;;;;;14.60;6.70;;;8.50;61.30;;;;;;4773368;29;20065;-78
2021/03/04 09:47:35;;;;;;;9.25;4.50;;;8.70;62.30;;;;;;4759308;30;20052;-78
2021/03/04 09:50:25;;;;;;;7.28;4.88;;;8.60;59.90;;;;;;4769666;30;20147;-78
2021/03/04 09:53:06;;;;;;;8.57;4.80;;;8.60;60.30;;;;;;4783908;30;20070;-78
2021/03/04 09:55:41;;;;;;;9.27;6.53;;;8.60;61.60;;;;;;4770382;30;20460;-78
2021/03/04 09:58:29;;;;;;;5.25;4.68;;;8.70;61.10;;;;;;4759885;30;20056;-78
2021/03/04 10:00:59;;;;;;;9.40;4.63;;;8.70;64.10;;;;;;4751513;30;20210;-78
2021/03/04 10:03:39;;;;;;;12.38;5.35;;;8.70;64.70;;;;;;4758093;30;20079;-78
2021/03/04 10:06:21;;;;;;;4.18;3.65;;;8.80;60.80;;;;;;4768953;30;20044;-78
2021/03/04 10:08:54;;;;;;;6.93;5.18;;;9.00;59.60;;;;;;4746718;30;20409;-78
2021/03/04 10:11:23;;;;;;;6.45;4.63;;;9.10;60.80;;;;;;4754360;30;20052;-78
2021/03/04 10:13:53;;;;;;;16.90;7.30;;;9.20;64.50;;;;;;4769179;30;20047;-78
2021/03/04 10:16:20;;;;;;;7.97;4.30;;;9.20;64.60;;;;;;4754253;30;20744;-78
2021/03/04 10:18:50;;;;;;;9.85;5.80;;;9.30;64.50;;;;;;4736708;30;20056;-78
2021/03/04 10:21:20;;;;;;;7.03;4.40;;;9.50;60.30;;;;;;4751233;30;20712;-78
2021/03/04 10:23:49;;;;;;;12.75;4.88;;;9.50;61.30;;;;;;4751184;30;20485;-78
2021/03/04 10:26:17;;;;;;;7.25;5.10;;;9.60;59.40;;;;;;4759291;30;20128;-78
2021/03/04 10:28:45;;;;;;;7.75;5.00;;;9.60;59.60;;;;;;4752390;30;20154;-77
2021/03/04 10:31:12;;;;;;;6.75;5.70;;;9.60;58.30;;;;;;4767581;30;20060;-77
2021/03/04 10:33:40;;;;;;;9.35;5.40;;;9.70;58.90;;;;;;4768345;30;20051;-77
2021/03/04 10:36:10;;;;;;;9.93;6.13;;;9.70;59.60;;;;;;4767112;30;20048;-77
2021/03/04 10:38:37;;;;;;;5.70;4.40;;;9.80;59.90;;;;;;4768258;30;20778;-77
2021/03/04 10:41:04;;;;;;;8.15;6.10;;;9.90;57.60;;;;;;4757788;30;20043;-75
2021/03/04 10:43:31;;;;;;;13.55;5.82;;;10.00;57.30;;;;;;4768382;30;20059;-76
2021/03/04 10:45:58;;;;;;;6.80;6.05;;;10.10;60.60;;;;;;4768610;30;20051;-75
2021/03/04 10:48:26;;;;;;;8.40;5.22;;;10.20;62.10;;;;;;4768114;30;20090;-75
2021/03/04 10:50:53;;;;;;;9.75;6.18;;;10.20;63.70;;;;;;4774548;30;20055;-75
2021/03/04 10:53:20;;;;;;;11.10;6.10;;;10.20;58.00;;;;;;4786137;30;20059;-75
2021/03/04 10:55:48;;;;;;;6.47;5.30;;;10.30;59.50;;;;;;4773600;30;20055;-76
2021/03/04 10:58:16;;;;;;;8.95;5.47;;;10.30;59.50;;;;;;4768077;30;20059;-77
2021/03/04 11:00:43;;;;;;;8.23;4.78;;;10.30;59.80;;;;;;4767999;30;20052;-77
2021/03/04 11:03:15;;;;;;;11.18;7.57;;;10.40;57.00;;;;;;4766856;30;20069;-79
2021/03/04 11:05:42;;;;;;;9.77;5.88;;;10.40;56.40;;;;;;4745044;30;20052;-79
2021/03/04 11:08:12;;;;;;;9.65;7.30;;;10.60;61.50;;;;;;4732865;30;20056;-79
2021/03/04 11:10:39;;;;;;;11.68;6.38;;;10.80;61.30;;;;;;4764393;30;20087;-81
2021/03/04 11:13:06;;;;;;;7.38;5.75;;;10.90;59.40;;;;;;4765044;30;20142;-81
2021/03/04 11:15:33;;;;;;;11.20;6.90;;;10.90;59.00;;;;;;4751174;30;20466;-82
2021/03/04 11:18:00;;;;;;;7.53;6.13;;;10.80;61.00;;;;;;4752297;30;20507;-83
2021/03/04 11:20:27;;;;;;;10.57;6.63;;;10.90;60.20;;;;;;4762767;30;20071;-81
2021/03/04 11:22:54;;;;;;;7.35;5.90;;;10.80;57.20;;;;;;4745482;30;20712;-79
2021/03/04 11:25:21;;;;;;;7.45;6.65;;;10.80;59.40;;;;;;4716763;30;20080;-85
2021/03/04 11:27:50;;;;;;;8.00;6.45;;;11.00;60.50;;;;;;4746997;30;20275;-82
2021/03/04 11:30:18;;;;;;;9.63;6.72;;;11.00;64.30;;;;;;4722672;30;20048;-84
2021/03/04 11:32:45;;;;;;;12.65;9.05;;;10.90;63.80;;;;;;4763274;30;20056;-83
2021/03/04 11:35:12;;;;;;;8.32;6.50;;;11.10;61.70;;;;;;4747855;30;20055;-84
2021/03/04 11:37:39;;;;;;;7.82;4.50;;;11.30;58.60;;;;;;4739770;30;20151;-83
2021/03/04 11:40:07;;;;;;;5.72;3.80;;;11.50;46.70;;;;;;4747766;30;20127;-82
2021/03/04 11:42:34;;;;;;;5.00;3.97;;;11.80;43.10;;;;;;4764727;30;20052;-84
2021/03/04 11:45:04;;;;;;;7.90;4.28;;;12.00;43.10;;;;;;4758712;30;20079;-81
2021/03/04 11:47:32;;;;;;;8.50;5.28;;;12.00;43.60;;;;;;4748455;30;20058;-84
2021/03/04 11:49:59;;;;;;;9.70;5.20;;;11.90;40.90;;;;;;4752355;30;20055;-84
2021/03/04 11:52:26;;;;;;;8.65;5.00;;;11.80;40.00;;;;;;4752847;30;20036;-82
2021/03/04 11:54:53;;;;;;;7.50;5.70;;;11.90;40.30;;;;;;4753722;30;20078;-84
2021/03/04 11:57:23;;;;;;;17.23;6.38;;;12.10;43.40;;;;;;4774408;30;20044;-87
2021/03/04 11:59:56;;;;;;;6.82;4.32;;;12.30;40.80;;;;;;4768661;30;20141;-83
2021/03/04 12:02:24;;;;;;;3.95;3.30;;;12.50;43.10;;;;;;4768951;30;20083;-85
2021/03/04 12:04:52;;;;;;;10.15;4.38;;;12.70;39.70;;;;;;4754335;30;20125;-82
2021/03/04 12:07:21;;;;;;;12.05;5.30;;;12.70;37.50;;;;;;4769546;30;20070;-85
2021/03/04 12:09:49;;;;;;;14.35;3.78;;;12.50;40.70;;;;;;4756005;30;20587;-85
2021/03/04 12:12:19;;;;;;;10.45;5.68;;;12.80;39.10;;;;;;4769760;30;20105;-86
2021/03/04 12:15:15;;;;;;;9.32;5.65;;;12.90;39.80;;;;;;4772806;30;20060;-86
2021/03/04 12:17:44;;;;;;;10.15;4.72;;;12.80;39.10;;;;;;4771717;29;20056;-86
2021/03/04 12:20:49;;;;;;;10.68;5.03;;;12.80;40.00;;;;;;4785511;30;20515;-84
2021/03/04 12:23:21;;;;;;;11.77;4.55;;;13.00;39.10;;;;;;4762712;30;20060;-83
2021/03/04 12:26:04;;;;;;;18.10;8.60;;;13.10;43.50;;;;;;4754334;30;20056;-82
2021/03/04 12:28:43;;;;;;;9.95;4.45;;;13.00;38.20;;;;;;4747914;30;20113;-80
2021/03/04 12:31:10;;;;;;;7.43;5.28;;;12.70;39.30;;;;;;4753907;30;20101;-83
2021/03/04 12:33:37;;;;;;;9.20;6.93;;;12.60;42.10;;;;;;4772694;30;20055;-83
2021/03/04 12:36:11;;;;;;;11.50;4.60;;;12.90;40.60;;;;;;4771576;30;20518;-83
2021/03/04 12:38:38;;;;;;;12.45;6.30;;;12.70;39.10;;;;;;4756683;30;20079;-84
2021/03/04 12:41:05;;;;;;;8.20;5.32;;;12.80;38.90;;;;;;4740948;30;20056;-85
2021/03/04 12:44:02;;;;;;;9.20;8.15;;;12.90;40.60;;;;;;4756205;30;20438;-83
2021/03/04 12:46:42;;;;;;;14.88;7.78;;;12.80;38.20;;;;;;4744730;30;20056;-83
2021/03/04 12:50:01;;;;;;;10.82;6.10;;;13.00;40.20;;;;;;4748790;30;20083;-87
2021/03/04 12:52:43;;;;;;;15.80;6.15;;;13.00;38.30;;;;;;4752983;30;20054;-90
2021/03/04 12:55:52;;;;;;;12.20;7.00;;;13.00;40.00;;;;;;4741319;30;20063;-91
2021/03/04 12:58:22;;;;;;;11.18;6.57;;;13.00;39.20;;;;;;4764082;30;20496;-81
2021/03/04 13:00:50;;;;;;;11.45;5.53;;;12.90;42.40;;;;;;4781232;29;20090;-85
2021/03/04 13:03:32;;;;;;;9.20;6.03;;;13.20;39.40;;;;;;4760757;30;20055;-87
2021/03/04 13:06:05;;;;;;;13.15;6.68;;;13.60;42.30;;;;;;4759967;30;20044;-84
2021/03/04 13:08:53;;;;;;;15.25;7.30;;;13.40;40.10;;;;;;4771202;30;20051;-86
2021/03/04 13:11:20;;;;;;;15.98;7.93;;;13.60;43.40;;;;;;4755669;30;20054;-85
2021/03/04 13:13:47;;;;;;;15.88;6.32;;;13.60;44.00;;;;;;4755476;30;20064;-85